Back to Top

Language: 

My Weather Underground Personal Weather Station Historical Data with Graphs...

Delerius Weather Station Historical Data
Daily Summary for April 1, 2017 Units:  Both    English   Metric
« Previous Day
Next Day »
Daily Weekly Monthly Yearly Custom
  High: Low: Average:
Temperature: 59.5 °F /  15.3 °C 45.5 °F /  7.5 °C 50.9 °F /  10.5 °C
Dew Point: 49.0 °F /  9.4 °C 42.9 °F /  6.1 °C 45.5 °F /  7.5 °C
Humidity: 94 % 66 % 82 %
Wind Speed: 13.0 mph /  20.9 km/h - 5.2 mph /  8.4 km/h
Wind Gust: 22.0 mph /  35.4 km/h - -
Wind:- - SW
Pressure: 29.94 in /  1013.8 hPa 29.67 in /  1004.6 hPa -
Precipitation: 0.01 in /  0.25 mm    
Historical Graphs
 
 
Tabular Data for April 1, 2017
Time Temperature Dew Point Pressure Wind Wind Speed Wind Gust Humidity Rainfall Rate (Hourly) solar Conditions
00:04 52.3 °F /  11.3 °C 46.7 °F /  8.2 °C 29.71 in /  1006 hPa South 4.0 mph /  6.4 km/h 14.0 mph /  22.5 km/h 81 % 0.00 in /  0 mm 0 W/m2
00:09 52.3 °F /  11.3 °C 46.7 °F /  8.2 °C 29.70 in /  1005.6 hPa South 6.0 mph /  9.7 km/h 18.0 mph /  29 km/h 81 % 0.00 in /  0 mm 0 W/m2
00:14 52.3 °F /  11.3 °C 46.7 °F /  8.2 °C 29.70 in /  1005.6 hPa South 7.0 mph /  11.3 km/h 18.0 mph /  29 km/h 81 % 0.00 in /  0 mm 0 W/m2
00:19 52.2 °F /  11.2 °C 46.5 °F /  8.1 °C 29.70 in /  1005.6 hPa South 6.0 mph /  9.7 km/h 16.0 mph /  25.7 km/h 81 % 0.00 in /  0 mm 0 W/m2
00:24 52.2 °F /  11.2 °C 46.5 °F /  8.1 °C 29.70 in /  1005.6 hPa SSW 8.0 mph /  12.9 km/h 15.0 mph /  24.1 km/h 81 % 0.00 in /  0 mm 0 W/m2
00:29 52.0 °F /  11.1 °C 46.3 °F /  7.9 °C 29.70 in /  1005.6 hPa SSW 8.0 mph /  12.9 km/h 15.0 mph /  24.1 km/h 81 % 0.00 in /  0 mm 0 W/m2
00:34 52.0 °F /  11.1 °C 46.3 °F /  7.9 °C 29.70 in /  1005.6 hPa SSW 8.0 mph /  12.9 km/h 15.0 mph /  24.1 km/h 81 % 0.00 in /  0 mm 0 W/m2
00:39 51.8 °F /  11 °C 46.2 °F /  7.9 °C 29.70 in /  1005.6 hPa SSW 8.0 mph /  12.9 km/h 15.0 mph /  24.1 km/h 81 % 0.00 in /  0 mm 0 W/m2
00:44 51.6 °F /  10.9 °C 46.0 °F /  7.8 °C 29.70 in /  1005.6 hPa SSW 8.0 mph /  12.9 km/h 14.0 mph /  22.5 km/h 81 % 0.00 in /  0 mm 0 W/m2
00:49 51.6 °F /  10.9 °C 46.0 °F /  7.8 °C 29.70 in /  1005.6 hPa SSW 7.0 mph /  11.3 km/h 12.0 mph /  19.3 km/h 81 % 0.00 in /  0 mm 0 W/m2
00:54 51.4 °F /  10.8 °C 45.8 °F /  7.7 °C 29.69 in /  1005.3 hPa SSW 6.0 mph /  9.7 km/h 12.0 mph /  19.3 km/h 81 % 0.00 in /  0 mm 0 W/m2
00:59 51.4 °F /  10.8 °C 45.8 °F /  7.7 °C 29.69 in /  1005.3 hPa SSW 6.0 mph /  9.7 km/h 11.0 mph /  17.7 km/h 81 % 0.00 in /  0 mm 0 W/m2
01:04 51.3 °F /  10.7 °C 46.0 °F /  7.8 °C 29.69 in /  1005.3 hPa SSW 6.0 mph /  9.7 km/h 10.0 mph /  16.1 km/h 82 % 0.00 in /  0 mm 0 W/m2
01:09 51.3 °F /  10.7 °C 46.0 °F /  7.8 °C 29.70 in /  1005.6 hPa SSW 6.0 mph /  9.7 km/h 10.0 mph /  16.1 km/h 82 % 0.00 in /  0 mm 0 W/m2
01:14 51.1 °F /  10.6 °C 45.8 °F /  7.7 °C 29.69 in /  1005.3 hPa SSW 5.0 mph /  8 km/h 10.0 mph /  16.1 km/h 82 % 0.00 in /  0 mm 0 W/m2
01:19 51.1 °F /  10.6 °C 45.8 °F /  7.7 °C 29.69 in /  1005.3 hPa SSW 4.0 mph /  6.4 km/h 9.0 mph /  14.5 km/h 82 % 0.00 in /  0 mm 0 W/m2
01:24 50.9 °F /  10.5 °C 45.6 °F /  7.6 °C 29.69 in /  1005.3 hPa SSW 4.0 mph /  6.4 km/h 8.0 mph /  12.9 km/h 82 % 0.00 in /  0 mm 0 W/m2
01:29 50.7 °F /  10.4 °C 45.4 °F /  7.4 °C 29.70 in /  1005.6 hPa SSW 5.0 mph /  8 km/h 9.0 mph /  14.5 km/h 82 % 0.00 in /  0 mm 0 W/m2
01:34 50.5 °F /  10.3 °C 45.2 °F /  7.3 °C 29.69 in /  1005.3 hPa SSW 4.0 mph /  6.4 km/h 9.0 mph /  14.5 km/h 82 % 0.00 in /  0 mm 0 W/m2
01:39 50.5 °F /  10.3 °C 45.6 °F /  7.6 °C 29.69 in /  1005.3 hPa South 4.0 mph /  6.4 km/h 8.0 mph /  12.9 km/h 83 % 0.00 in /  0 mm 0 W/m2
01:45 50.4 °F /  10.2 °C 45.4 °F /  7.4 °C 29.69 in /  1005.3 hPa South 3.0 mph /  4.8 km/h 8.0 mph /  12.9 km/h 83 % 0.00 in /  0 mm 0 W/m2
01:50 50.2 °F /  10.1 °C 45.2 °F /  7.3 °C 29.69 in /  1005.3 hPa South 3.0 mph /  4.8 km/h 7.0 mph /  11.3 km/h 83 % 0.00 in /  0 mm 0 W/m2
01:55 50.0 °F /  10 °C 45.0 °F /  7.2 °C 29.69 in /  1005.3 hPa South 4.0 mph /  6.4 km/h 7.0 mph /  11.3 km/h 83 % 0.00 in /  0 mm 0 W/m2
02:00 49.8 °F /  9.9 °C 45.2 °F /  7.3 °C 29.69 in /  1005.3 hPa South 4.0 mph /  6.4 km/h 8.0 mph /  12.9 km/h 84 % 0.00 in /  0 mm 0 W/m2
02:05 49.8 °F /  9.9 °C 45.2 °F /  7.3 °C 29.69 in /  1005.3 hPa South 5.0 mph /  8 km/h 8.0 mph /  12.9 km/h 84 % 0.00 in /  0 mm 0 W/m2
02:10 49.6 °F /  9.8 °C 45.0 °F /  7.2 °C 29.69 in /  1005.3 hPa South 5.0 mph /  8 km/h 8.0 mph /  12.9 km/h 84 % 0.00 in /  0 mm 0 W/m2
02:15 49.6 °F /  9.8 °C 45.0 °F /  7.2 °C 29.69 in /  1005.3 hPa South 4.0 mph /  6.4 km/h 8.0 mph /  12.9 km/h 84 % 0.00 in /  0 mm 0 W/m2
02:20 49.5 °F /  9.7 °C 44.8 °F /  7.1 °C 29.69 in /  1005.3 hPa South 4.0 mph /  6.4 km/h 8.0 mph /  12.9 km/h 84 % 0.00 in /  0 mm 0 W/m2
02:25 49.5 °F /  9.7 °C 45.1 °F /  7.3 °C 29.69 in /  1005.3 hPa South 4.0 mph /  6.4 km/h 8.0 mph /  12.9 km/h 85 % 0.00 in /  0 mm 0 W/m2
02:30 49.3 °F /  9.6 °C 45.0 °F /  7.2 °C 29.69 in /  1005.3 hPa South 4.0 mph /  6.4 km/h 8.0 mph /  12.9 km/h 85 % 0.00 in /  0 mm 0 W/m2
02:35 49.1 °F /  9.5 °C 44.8 °F /  7.1 °C 29.69 in /  1005.3 hPa South 4.0 mph /  6.4 km/h 8.0 mph /  12.9 km/h 85 % 0.00 in /  0 mm 0 W/m2
02:40 48.9 °F /  9.4 °C 44.6 °F /  7 °C 29.68 in /  1005 hPa South 5.0 mph /  8 km/h 11.0 mph /  17.7 km/h 85 % 0.00 in /  0 mm 0 W/m2
02:45 48.9 °F /  9.4 °C 44.6 °F /  7 °C 29.68 in /  1005 hPa South 5.0 mph /  8 km/h 11.0 mph /  17.7 km/h 85 % 0.00 in /  0 mm 0 W/m2
02:50 48.9 °F /  9.4 °C 44.6 °F /  7 °C 29.68 in /  1005 hPa South 4.0 mph /  6.4 km/h 10.0 mph /  16.1 km/h 85 % 0.00 in /  0 mm 0 W/m2
02:55 48.7 °F /  9.3 °C 44.4 °F /  6.9 °C 29.68 in /  1005 hPa South 4.0 mph /  6.4 km/h 10.0 mph /  16.1 km/h 85 % 0.00 in /  0 mm 0 W/m2
03:00 48.7 °F /  9.3 °C 44.7 °F /  7.1 °C 29.68 in /  1005 hPa South 4.0 mph /  6.4 km/h 10.0 mph /  16.1 km/h 86 % 0.00 in /  0 mm 0 W/m2
03:05 48.7 °F /  9.3 °C 44.7 °F /  7.1 °C 29.68 in /  1005 hPa South 5.0 mph /  8 km/h 9.0 mph /  14.5 km/h 86 % 0.00 in /  0 mm 0 W/m2
03:10 48.6 °F /  9.2 °C 44.6 °F /  7 °C 29.68 in /  1005 hPa South 4.0 mph /  6.4 km/h 9.0 mph /  14.5 km/h 86 % 0.00 in /  0 mm 0 W/m2
03:15 48.6 °F /  9.2 °C 44.6 °F /  7 °C 29.68 in /  1005 hPa South 3.0 mph /  4.8 km/h 8.0 mph /  12.9 km/h 86 % 0.00 in /  0 mm 0 W/m2
03:20 48.6 °F /  9.2 °C 44.6 °F /  7 °C 29.68 in /  1005 hPa South 3.0 mph /  4.8 km/h 8.0 mph /  12.9 km/h 86 % 0.00 in /  0 mm 0 W/m2
03:25 48.4 °F /  9.1 °C 44.4 °F /  6.9 °C 29.68 in /  1005 hPa South 3.0 mph /  4.8 km/h 7.0 mph /  11.3 km/h 86 % 0.00 in /  0 mm 0 W/m2
03:30 48.4 °F /  9.1 °C 44.4 °F /  6.9 °C 29.68 in /  1005 hPa South 3.0 mph /  4.8 km/h 7.0 mph /  11.3 km/h 86 % 0.00 in /  0 mm 0 W/m2
03:35 48.4 °F /  9.1 °C 44.4 °F /  6.9 °C 29.68 in /  1005 hPa South 4.0 mph /  6.4 km/h 8.0 mph /  12.9 km/h 86 % 0.00 in /  0 mm 0 W/m2
03:40 48.4 °F /  9.1 °C 44.4 °F /  6.9 °C 29.68 in /  1005 hPa SSE 3.0 mph /  4.8 km/h 8.0 mph /  12.9 km/h 86 % 0.00 in /  0 mm 0 W/m2
03:45 48.2 °F /  9 °C 44.2 °F /  6.8 °C 29.68 in /  1005 hPa SSE 2.0 mph /  3.2 km/h 5.0 mph /  8 km/h 86 % 0.00 in /  0 mm 0 W/m2
03:50 48.0 °F /  8.9 °C 44.0 °F /  6.7 °C 29.68 in /  1005 hPa South 2.0 mph /  3.2 km/h 5.0 mph /  8 km/h 86 % 0.00 in /  0 mm 0 W/m2
03:55 48.0 °F /  8.9 °C 44.3 °F /  6.8 °C 29.68 in /  1005 hPa South 3.0 mph /  4.8 km/h 7.0 mph /  11.3 km/h 87 % 0.00 in /  0 mm 0 W/m2
04:00 48.0 °F /  8.9 °C 44.3 °F /  6.8 °C 29.68 in /  1005 hPa South 4.0 mph /  6.4 km/h 10.0 mph /  16.1 km/h 87 % 0.00 in /  0 mm 0 W/m2
04:05 48.0 °F /  8.9 °C 44.3 °F /  6.8 °C 29.68 in /  1005 hPa South 3.0 mph /  4.8 km/h 10.0 mph /  16.1 km/h 87 % 0.00 in /  0 mm 0 W/m2
04:10 47.8 °F /  8.8 °C 44.2 °F /  6.8 °C 29.67 in /  1004.6 hPa SSW 2.0 mph /  3.2 km/h 6.0 mph /  9.7 km/h 87 % 0.00 in /  0 mm 0 W/m2
04:15 47.8 °F /  8.8 °C 44.2 °F /  6.8 °C 29.67 in /  1004.6 hPa SSW 2.0 mph /  3.2 km/h 10.0 mph /  16.1 km/h 87 % 0.00 in /  0 mm 0 W/m2
04:20 47.8 °F /  8.8 °C 44.2 °F /  6.8 °C 29.67 in /  1004.6 hPa SW 2.0 mph /  3.2 km/h 10.0 mph /  16.1 km/h 87 % 0.00 in /  0 mm 0 W/m2
04:25 47.8 °F /  8.8 °C 44.2 °F /  6.8 °C 29.67 in /  1004.6 hPa SW 1.0 mph /  1.6 km/h 6.0 mph /  9.7 km/h 87 % 0.00 in /  0 mm 0 W/m2
04:26 47.7 °F /  8.7 °C 44.0 °F /  6.7 °C 29.67 in /  1004.6 hPa SW 1.0 mph /  1.6 km/h 4.0 mph /  6.4 km/h 87 % 0.00 in /  0 mm 0 W/m2
04:31 47.7 °F /  8.7 °C 44.0 °F /  6.7 °C 29.67 in /  1004.6 hPa SW 1.0 mph /  1.6 km/h 6.0 mph /  9.7 km/h 87 % 0.00 in /  0 mm 0 W/m2
04:36 47.5 °F /  8.6 °C 43.8 °F /  6.6 °C 29.67 in /  1004.6 hPa SSW 1.0 mph /  1.6 km/h 7.0 mph /  11.3 km/h 87 % 0.00 in /  0 mm 0 W/m2
04:41 47.1 °F /  8.4 °C 43.4 °F /  6.3 °C 29.67 in /  1004.6 hPa South 1.0 mph /  1.6 km/h 7.0 mph /  11.3 km/h 87 % 0.00 in /  0 mm 0 W/m2
04:43 47.1 °F /  8.4 °C 43.4 °F /  6.3 °C 29.67 in /  1004.6 hPa Calm   4.0 mph /  6.4 km/h 87 % 0.00 in /  0 mm 0 W/m2
04:48 46.9 °F /  8.3 °C 43.3 °F /  6.3 °C 29.67 in /  1004.6 hPa Calm   2.0 mph /  3.2 km/h 87 % 0.00 in /  0 mm 0 W/m2
04:53 46.8 °F /  8.2 °C 43.4 °F /  6.3 °C 29.67 in /  1004.6 hPa Calm   2.0 mph /  3.2 km/h 88 % 0.00 in /  0 mm 0 W/m2
04:58 46.8 °F /  8.2 °C 43.4 °F /  6.3 °C 29.67 in /  1004.6 hPa Calm   4.0 mph /  6.4 km/h 88 % 0.00 in /  0 mm 0 W/m2
05:03 46.6 °F /  8.1 °C 43.2 °F /  6.2 °C 29.67 in /  1004.6 hPa Calm   4.0 mph /  6.4 km/h 88 % 0.00 in /  0 mm 0 W/m2
05:08 46.4 °F /  8 °C 43.0 °F /  6.1 °C 29.67 in /  1004.6 hPa Calm   1.0 mph /  1.6 km/h 88 % 0.00 in /  0 mm 0 W/m2
05:13 46.2 °F /  7.9 °C 43.2 °F /  6.2 °C 29.67 in /  1004.6 hPa Calm   2.0 mph /  3.2 km/h 89 % 0.00 in /  0 mm 0 W/m2
05:18 46.0 °F /  7.8 °C 43.0 °F /  6.1 °C 29.67 in /  1004.6 hPa Calm   4.0 mph /  6.4 km/h 89 % 0.00 in /  0 mm 0 W/m2
05:23 46.0 °F /  7.8 °C 43.0 °F /  6.1 °C 29.67 in /  1004.6 hPa SSE 1.0 mph /  1.6 km/h 5.0 mph /  8 km/h 89 % 0.00 in /  0 mm 0 W/m2
05:28 46.0 °F /  7.8 °C 43.3 °F /  6.3 °C 29.67 in /  1004.6 hPa Calm   5.0 mph /  8 km/h 90 % 0.00 in /  0 mm 0 W/m2
05:33 46.0 °F /  7.8 °C 43.3 °F /  6.3 °C 29.67 in /  1004.6 hPa SSE 1.0 mph /  1.6 km/h 5.0 mph /  8 km/h 90 % 0.00 in /  0 mm 0 W/m2
05:38 46.0 °F /  7.8 °C 43.3 °F /  6.3 °C 29.67 in /  1004.6 hPa SSE 2.0 mph /  3.2 km/h 5.0 mph /  8 km/h 90 % 0.00 in /  0 mm 0 W/m2
05:43 46.0 °F /  7.8 °C 43.3 °F /  6.3 °C 29.67 in /  1004.6 hPa SSE 1.0 mph /  1.6 km/h 5.0 mph /  8 km/h 90 % 0.00 in /  0 mm 0 W/m2
05:48 46.0 °F /  7.8 °C 43.3 °F /  6.3 °C 29.67 in /  1004.6 hPa SSE 1.0 mph /  1.6 km/h 5.0 mph /  8 km/h 90 % 0.00 in /  0 mm 0 W/m2
05:53 45.9 °F /  7.7 °C 43.1 °F /  6.2 °C 29.67 in /  1004.6 hPa Calm   1.0 mph /  1.6 km/h 90 % 0.00 in /  0 mm 0 W/m2
05:58 45.9 °F /  7.7 °C 43.1 °F /  6.2 °C 29.67 in /  1004.6 hPa SE 1.0 mph /  1.6 km/h 6.0 mph /  9.7 km/h 90 % 0.00 in /  0 mm 0 W/m2
06:03 45.9 °F /  7.7 °C 43.1 °F /  6.2 °C 29.67 in /  1004.6 hPa SE 3.0 mph /  4.8 km/h 6.0 mph /  9.7 km/h 90 % 0.00 in /  0 mm 0 W/m2
06:08 45.9 °F /  7.7 °C 43.4 °F /  6.3 °C 29.67 in /  1004.6 hPa SE 4.0 mph /  6.4 km/h 6.0 mph /  9.7 km/h 91 % 0.00 in /  0 mm 0 W/m2
06:13 45.9 °F /  7.7 °C 43.4 °F /  6.3 °C 29.67 in /  1004.6 hPa SE 4.0 mph /  6.4 km/h 6.0 mph /  9.7 km/h 91 % 0.00 in /  0 mm 0 W/m2
06:18 45.9 °F /  7.7 °C 43.1 °F /  6.2 °C 29.67 in /  1004.6 hPa SE 3.0 mph /  4.8 km/h 6.0 mph /  9.7 km/h 90 % 0.00 in /  0 mm 0 W/m2
06:24 45.9 °F /  7.7 °C 43.1 °F /  6.2 °C 29.67 in /  1004.6 hPa SE 2.0 mph /  3.2 km/h 6.0 mph /  9.7 km/h 90 % 0.00 in /  0 mm 0 W/m2
06:29 45.7 °F /  7.6 °C 42.9 °F /  6.1 °C 29.67 in /  1004.6 hPa SE 2.0 mph /  3.2 km/h 6.0 mph /  9.7 km/h 90 % 0.00 in /  0 mm 0 W/m2
06:34 45.7 °F /  7.6 °C 42.9 °F /  6.1 °C 29.67 in /  1004.6 hPa SE 3.0 mph /  4.8 km/h 6.0 mph /  9.7 km/h 90 % 0.00 in /  0 mm 0 W/m2
06:39 45.5 °F /  7.5 °C 43.0 °F /  6.1 °C 29.67 in /  1004.6 hPa SE 4.0 mph /  6.4 km/h 6.0 mph /  9.7 km/h 91 % 0.00 in /  0 mm 0 W/m2
06:44 45.5 °F /  7.5 °C 43.0 °F /  6.1 °C 29.67 in /  1004.6 hPa SE 4.0 mph /  6.4 km/h 6.0 mph /  9.7 km/h 91 % 0.00 in /  0 mm 5 W/m2
06:49 45.5 °F /  7.5 °C 43.0 °F /  6.1 °C 29.67 in /  1004.6 hPa SE 3.0 mph /  4.8 km/h 6.0 mph /  9.7 km/h 91 % 0.00 in /  0 mm 0 W/m2
06:54 45.5 °F /  7.5 °C 43.0 °F /  6.1 °C 29.67 in /  1004.6 hPa ESE 2.0 mph /  3.2 km/h 5.0 mph /  8 km/h 91 % 0.00 in /  0 mm 0 W/m2
06:59 45.5 °F /  7.5 °C 43.0 °F /  6.1 °C 29.67 in /  1004.6 hPa ESE 3.0 mph /  4.8 km/h 5.0 mph /  8 km/h 91 % 0.00 in /  0 mm 7 W/m2
07:04 45.5 °F /  7.5 °C 43.0 °F /  6.1 °C 29.67 in /  1004.6 hPa ESE 2.0 mph /  3.2 km/h 5.0 mph /  8 km/h 91 % 0.00 in /  0 mm 11 W/m2
07:09 45.5 °F /  7.5 °C 43.0 °F /  6.1 °C 29.68 in /  1005 hPa ESE 1.0 mph /  1.6 km/h 4.0 mph /  6.4 km/h 91 % 0.00 in /  0 mm 18 W/m2
07:14 45.5 °F /  7.5 °C 43.0 °F /  6.1 °C 29.68 in /  1005 hPa ESE 2.0 mph /  3.2 km/h 6.0 mph /  9.7 km/h 91 % 0.00 in /  0 mm 19 W/m2
07:19 45.7 °F /  7.6 °C 43.5 °F /  6.4 °C 29.68 in /  1005 hPa ESE 2.0 mph /  3.2 km/h 6.0 mph /  9.7 km/h 92 % 0.00 in /  0 mm 23 W/m2
07:24 45.7 °F /  7.6 °C 43.5 °F /  6.4 °C 29.67 in /  1004.6 hPa ESE 2.0 mph /  3.2 km/h 5.0 mph /  8 km/h 92 % 0.00 in /  0 mm 18 W/m2
07:29 45.7 °F /  7.6 °C 43.5 °F /  6.4 °C 29.67 in /  1004.6 hPa ESE 1.0 mph /  1.6 km/h 6.0 mph /  9.7 km/h 92 % 0.00 in /  0 mm 16 W/m2
07:34 45.7 °F /  7.6 °C 43.2 °F /  6.2 °C 29.68 in /  1005 hPa SE 1.0 mph /  1.6 km/h 6.0 mph /  9.7 km/h 91 % 0.00 in /  0 mm 18 W/m2
07:39 45.9 °F /  7.7 °C 43.4 °F /  6.3 °C 29.68 in /  1005 hPa SE 1.0 mph /  1.6 km/h 5.0 mph /  8 km/h 91 % 0.00 in /  0 mm 33 W/m2
07:44 45.9 °F /  7.7 °C 43.7 °F /  6.5 °C 29.67 in /  1004.6 hPa SE 1.0 mph /  1.6 km/h 5.0 mph /  8 km/h 92 % 0.00 in /  0 mm 30 W/m2
07:49 45.9 °F /  7.7 °C 43.7 °F /  6.5 °C 29.67 in /  1004.6 hPa Calm   1.0 mph /  1.6 km/h 92 % 0.00 in /  0 mm 67 W/m2
07:54 46.0 °F /  7.8 °C 43.8 °F /  6.6 °C 29.67 in /  1004.6 hPa Calm   2.0 mph /  3.2 km/h 92 % 0.00 in /  0 mm 86 W/m2
07:55 46.0 °F /  7.8 °C 43.8 °F /  6.6 °C 29.67 in /  1004.6 hPa Calm   2.0 mph /  3.2 km/h 92 % 0.01 in /  0.25 mm 76 W/m2
08:00 46.2 °F /  7.9 °C 44.0 °F /  6.7 °C 29.68 in /  1005 hPa Calm   2.0 mph /  3.2 km/h 92 % 0.01 in /  0.25 mm 76 W/m2
08:05 46.6 °F /  8.1 °C 44.4 °F /  6.9 °C 29.68 in /  1005 hPa Calm   1.0 mph /  1.6 km/h 92 % 0.01 in /  0.25 mm 33 W/m2
08:10 46.6 °F /  8.1 °C 44.4 °F /  6.9 °C 29.68 in /  1005 hPa Calm   1.0 mph /  1.6 km/h 92 % 0.01 in /  0.25 mm 32 W/m2
08:16 46.6 °F /  8.1 °C 44.4 °F /  6.9 °C 29.68 in /  1005 hPa Calm   4.0 mph /  6.4 km/h 92 % 0.01 in /  0.25 mm 47 W/m2
08:21 46.6 °F /  8.1 °C 44.4 °F /  6.9 °C 29.68 in /  1005 hPa Calm   4.0 mph /  6.4 km/h 92 % 0.01 in /  0.25 mm 46 W/m2
08:26 46.6 °F /  8.1 °C 44.4 °F /  6.9 °C 29.68 in /  1005 hPa Calm   2.0 mph /  3.2 km/h 92 % 0.01 in /  0.25 mm 56 W/m2
08:31 46.8 °F /  8.2 °C 44.8 °F /  7.1 °C 29.68 in /  1005 hPa SE 1.0 mph /  1.6 km/h 4.0 mph /  6.4 km/h 93 % 0.01 in /  0.25 mm 83 W/m2
08:36 46.8 °F /  8.2 °C 44.8 °F /  7.1 °C 29.68 in /  1005 hPa ESE 1.0 mph /  1.6 km/h 4.0 mph /  6.4 km/h 93 % 0.01 in /  0.25 mm 39 W/m2
08:41 46.8 °F /  8.2 °C 44.6 °F /  7 °C 29.68 in /  1005 hPa East 1.0 mph /  1.6 km/h 5.0 mph /  8 km/h 92 % 0.01 in /  0.25 mm 56 W/m2
08:46 46.9 °F /  8.3 °C 45.0 °F /  7.2 °C 29.68 in /  1005 hPa East 2.0 mph /  3.2 km/h 5.0 mph /  8 km/h 93 % 0.01 in /  0.25 mm 97 W/m2
08:51 46.9 °F /  8.3 °C 45.0 °F /  7.2 °C 29.68 in /  1005 hPa ESE 2.0 mph /  3.2 km/h 6.0 mph /  9.7 km/h 93 % 0.01 in /  0.25 mm 134 W/m2
08:56 47.1 °F /  8.4 °C 45.2 °F /  7.3 °C 29.68 in /  1005 hPa SE 2.0 mph /  3.2 km/h 6.0 mph /  9.7 km/h 93 % 0.00 in /  0 mm 116 W/m2
09:01 47.3 °F /  8.5 °C 45.4 °F /  7.4 °C 29.68 in /  1005 hPa SE 2.0 mph /  3.2 km/h 5.0 mph /  8 km/h 93 % 0.00 in /  0 mm 93 W/m2
09:06 47.5 °F /  8.6 °C 45.6 °F /  7.6 °C 29.69 in /  1005.3 hPa ESE 2.0 mph /  3.2 km/h 5.0 mph /  8 km/h 93 % 0.00 in /  0 mm 67 W/m2
09:11 47.5 °F /  8.6 °C 45.6 °F /  7.6 °C 29.68 in /  1005 hPa ESE 2.0 mph /  3.2 km/h 5.0 mph /  8 km/h 93 % 0.00 in /  0 mm 95 W/m2
09:16 47.5 °F /  8.6 °C 45.6 °F /  7.6 °C 29.69 in /  1005.3 hPa ESE 2.0 mph /  3.2 km/h 5.0 mph /  8 km/h 93 % 0.00 in /  0 mm 72 W/m2
09:21 47.5 °F /  8.6 °C 45.6 °F /  7.6 °C 29.69 in /  1005.3 hPa ESE 3.0 mph /  4.8 km/h 6.0 mph /  9.7 km/h 93 % 0.00 in /  0 mm 74 W/m2
09:26 47.5 °F /  8.6 °C 45.6 °F /  7.6 °C 29.69 in /  1005.3 hPa ESE 3.0 mph /  4.8 km/h 6.0 mph /  9.7 km/h 93 % 0.00 in /  0 mm 84 W/m2
09:28 47.5 °F /  8.6 °C 45.6 °F /  7.6 °C 29.69 in /  1005.3 hPa ESE 2.0 mph /  3.2 km/h 6.0 mph /  9.7 km/h 93 % 0.00 in /  0 mm 65 W/m2
09:33 47.5 °F /  8.6 °C 45.6 °F /  7.6 °C 29.69 in /  1005.3 hPa SE 2.0 mph /  3.2 km/h 5.0 mph /  8 km/h 93 % 0.00 in /  0 mm 44 W/m2
09:38 47.3 °F /  8.5 °C 45.4 °F /  7.4 °C 29.69 in /  1005.3 hPa SE 2.0 mph /  3.2 km/h 5.0 mph /  8 km/h 93 % 0.00 in /  0 mm 51 W/m2
09:43 47.5 °F /  8.6 °C 45.6 °F /  7.6 °C 29.69 in /  1005.3 hPa SE 2.0 mph /  3.2 km/h 6.0 mph /  9.7 km/h 93 % 0.00 in /  0 mm 69 W/m2
09:48 47.5 °F /  8.6 °C 45.6 °F /  7.6 °C 29.69 in /  1005.3 hPa SE 2.0 mph /  3.2 km/h 6.0 mph /  9.7 km/h 93 % 0.00 in /  0 mm 146 W/m2
09:53 47.7 °F /  8.7 °C 46.0 °F /  7.8 °C 29.69 in /  1005.3 hPa SSE 1.0 mph /  1.6 km/h 5.0 mph /  8 km/h 94 % 0.00 in /  0 mm 172 W/m2
09:58 47.8 °F /  8.8 °C 46.2 °F /  7.9 °C 29.69 in /  1005.3 hPa SSE 1.0 mph /  1.6 km/h 4.0 mph /  6.4 km/h 94 % 0.00 in /  0 mm 181 W/m2
10:03 48.0 °F /  8.9 °C 46.4 °F /  8 °C 29.69 in /  1005.3 hPa SSE 1.0 mph /  1.6 km/h 4.0 mph /  6.4 km/h 94 % 0.00 in /  0 mm 125 W/m2
10:08 48.2 °F /  9 °C 46.6 °F /  8.1 °C 29.69 in /  1005.3 hPa SSE 1.0 mph /  1.6 km/h 5.0 mph /  8 km/h 94 % 0.00 in /  0 mm 86 W/m2
10:13 48.2 °F /  9 °C 46.3 °F /  7.9 °C 29.69 in /  1005.3 hPa South 1.0 mph /  1.6 km/h 5.0 mph /  8 km/h 93 % 0.00 in /  0 mm 69 W/m2
10:18 48.2 °F /  9 °C 46.3 °F /  7.9 °C 29.69 in /  1005.3 hPa SW 2.0 mph /  3.2 km/h 8.0 mph /  12.9 km/h 93 % 0.00 in /  0 mm 70 W/m2
10:23 48.4 °F /  9.1 °C 46.4 °F /  8 °C 29.69 in /  1005.3 hPa SW 3.0 mph /  4.8 km/h 8.0 mph /  12.9 km/h 93 % 0.00 in /  0 mm 111 W/m2
10:28 48.4 °F /  9.1 °C 46.4 °F /  8 °C 29.70 in /  1005.6 hPa SSW 4.0 mph /  6.4 km/h 10.0 mph /  16.1 km/h 93 % 0.00 in /  0 mm 97 W/m2
10:33 48.4 °F /  9.1 °C 46.2 °F /  7.9 °C 29.70 in /  1005.6 hPa SSW 6.0 mph /  9.7 km/h 10.0 mph /  16.1 km/h 92 % 0.00 in /  0 mm 60 W/m2
10:38 48.4 °F /  9.1 °C 46.2 °F /  7.9 °C 29.70 in /  1005.6 hPa SW 6.0 mph /  9.7 km/h 10.0 mph /  16.1 km/h 92 % 0.00 in /  0 mm 67 W/m2
10:43 48.4 °F /  9.1 °C 46.2 °F /  7.9 °C 29.70 in /  1005.6 hPa SW 5.0 mph /  8 km/h 10.0 mph /  16.1 km/h 92 % 0.00 in /  0 mm 120 W/m2
10:48 48.4 °F /  9.1 °C 46.2 °F /  7.9 °C 29.70 in /  1005.6 hPa SW 5.0 mph /  8 km/h 10.0 mph /  16.1 km/h 92 % 0.00 in /  0 mm 142 W/m2
10:53 48.6 °F /  9.2 °C 46.3 °F /  7.9 °C 29.70 in /  1005.6 hPa SSW 5.0 mph /  8 km/h 10.0 mph /  16.1 km/h 92 % 0.00 in /  0 mm 171 W/m2
10:58 48.7 °F /  9.3 °C 46.8 °F /  8.2 °C 29.70 in /  1005.6 hPa SW 3.0 mph /  4.8 km/h 7.0 mph /  11.3 km/h 93 % 0.00 in /  0 mm 171 W/m2
11:03 48.7 °F /  9.3 °C 46.5 °F /  8.1 °C 29.70 in /  1005.6 hPa SW 3.0 mph /  4.8 km/h 6.0 mph /  9.7 km/h 92 % 0.00 in /  0 mm 190 W/m2
11:08 48.9 °F /  9.4 °C 46.7 °F /  8.2 °C 29.70 in /  1005.6 hPa SW 3.0 mph /  4.8 km/h 6.0 mph /  9.7 km/h 92 % 0.00 in /  0 mm 220 W/m2
11:13 49.1 °F /  9.5 °C 46.9 °F /  8.3 °C 29.70 in /  1005.6 hPa SW 3.0 mph /  4.8 km/h 6.0 mph /  9.7 km/h 92 % 0.00 in /  0 mm 244 W/m2
11:18 49.5 °F /  9.7 °C 47.2 °F /  8.4 °C 29.70 in /  1005.6 hPa SW 1.0 mph /  1.6 km/h 5.0 mph /  8 km/h 92 % 0.00 in /  0 mm 315 W/m2
11:23 49.6 °F /  9.8 °C 47.1 °F /  8.4 °C 29.70 in /  1005.6 hPa SW 2.0 mph /  3.2 km/h 6.0 mph /  9.7 km/h 91 % 0.00 in /  0 mm 322 W/m2
11:28 50.0 °F /  10 °C 47.5 °F /  8.6 °C 29.70 in /  1005.6 hPa SW 3.0 mph /  4.8 km/h 7.0 mph /  11.3 km/h 91 % 0.00 in /  0 mm 438 W/m2
11:33 50.5 °F /  10.3 °C 48.0 °F /  8.9 °C 29.70 in /  1005.6 hPa SSW 3.0 mph /  4.8 km/h 7.0 mph /  11.3 km/h 91 % 0.00 in /  0 mm 473 W/m2
11:38 51.3 °F /  10.7 °C 48.7 °F /  9.3 °C 29.70 in /  1005.6 hPa SSW 2.0 mph /  3.2 km/h 6.0 mph /  9.7 km/h 91 % 0.00 in /  0 mm 657 W/m2
11:43 51.4 °F /  10.8 °C 48.3 °F /  9.1 °C 29.70 in /  1005.6 hPa SW 2.0 mph /  3.2 km/h 6.0 mph /  9.7 km/h 89 % 0.00 in /  0 mm 686 W/m2
11:48 52.2 °F /  11.2 °C 49.0 °F /  9.4 °C 29.70 in /  1005.6 hPa SSW 2.0 mph /  3.2 km/h 5.0 mph /  8 km/h 89 % 0.00 in /  0 mm 703 W/m2
11:53 52.7 °F /  11.5 °C 48.9 °F /  9.4 °C 29.71 in /  1006 hPa South 1.0 mph /  1.6 km/h 5.0 mph /  8 km/h 87 % 0.00 in /  0 mm 327 W/m2
11:58 53.1 °F /  11.7 °C 49.0 °F /  9.4 °C 29.70 in /  1005.6 hPa SSW 1.0 mph /  1.6 km/h 6.0 mph /  9.7 km/h 86 % 0.00 in /  0 mm 244 W/m2
12:04 53.2 °F /  11.8 °C 48.5 °F /  9.2 °C 29.71 in /  1006 hPa SW 1.0 mph /  1.6 km/h 6.0 mph /  9.7 km/h 84 % 0.00 in /  0 mm 313 W/m2
12:08 53.2 °F /  11.8 °C 48.5 °F /  9.2 °C 29.71 in /  1006 hPa SW 2.0 mph /  3.2 km/h 6.0 mph /  9.7 km/h 84 % 0.00 in /  0 mm 406 W/m2
12:14 53.4 °F /  11.9 °C 49.0 °F /  9.4 °C 29.71 in /  1006 hPa SW 1.0 mph /  1.6 km/h 5.0 mph /  8 km/h 85 % 0.00 in /  0 mm 299 W/m2
12:19 54.0 °F /  12.2 °C 48.9 °F /  9.4 °C 29.71 in /  1006 hPa WNW 3.0 mph /  4.8 km/h 8.0 mph /  12.9 km/h 83 % 0.00 in /  0 mm 840 W/m2
12:24 54.7 °F /  12.6 °C 49.0 °F /  9.4 °C 29.71 in /  1006 hPa WNW 4.0 mph /  6.4 km/h 8.0 mph /  12.9 km/h 81 % 0.00 in /  0 mm 338 W/m2
12:29 55.2 °F /  12.9 °C 48.8 °F /  9.3 °C 29.70 in /  1005.6 hPa WNW 4.0 mph /  6.4 km/h 9.0 mph /  14.5 km/h 79 % 0.00 in /  0 mm 360 W/m2
12:34 55.4 °F /  13 °C 48.3 °F /  9.1 °C 29.71 in /  1006 hPa NW 5.0 mph /  8 km/h 13.0 mph /  20.9 km/h 77 % 0.00 in /  0 mm 227 W/m2
12:39 55.6 °F /  13.1 °C 47.1 °F /  8.4 °C 29.71 in /  1006 hPa NW 7.0 mph /  11.3 km/h 13.0 mph /  20.9 km/h 73 % 0.00 in /  0 mm 318 W/m2
12:44 55.9 °F /  13.3 °C 47.8 °F /  8.8 °C 29.71 in /  1006 hPa WNW 7.0 mph /  11.3 km/h 13.0 mph /  20.9 km/h 74 % 0.00 in /  0 mm 717 W/m2
12:49 56.5 °F /  13.6 °C 47.9 °F /  8.8 °C 29.70 in /  1005.6 hPa WNW 7.0 mph /  11.3 km/h 15.0 mph /  24.1 km/h 73 % 0.00 in /  0 mm 923 W/m2
12:54 56.7 °F /  13.7 °C 47.4 °F /  8.6 °C 29.71 in /  1006 hPa West 9.0 mph /  14.5 km/h 16.0 mph /  25.7 km/h 71 % 0.00 in /  0 mm 183 W/m2
12:59 56.1 °F /  13.4 °C 47.2 °F /  8.4 °C 29.71 in /  1006 hPa West 10.0 mph /  16.1 km/h 16.0 mph /  25.7 km/h 72 % 0.00 in /  0 mm 229 W/m2
13:04 55.9 °F /  13.3 °C 47.8 °F /  8.8 °C 29.71 in /  1006 hPa West 10.0 mph /  16.1 km/h 16.0 mph /  25.7 km/h 74 % 0.00 in /  0 mm 243 W/m2
13:09 56.1 °F /  13.4 °C 47.9 °F /  8.8 °C 29.71 in /  1006 hPa WNW 9.0 mph /  14.5 km/h 15.0 mph /  24.1 km/h 74 % 0.00 in /  0 mm 882 W/m2
13:14 56.8 °F /  13.8 °C 47.9 °F /  8.8 °C 29.71 in /  1006 hPa WNW 9.0 mph /  14.5 km/h 16.0 mph /  25.7 km/h 72 % 0.00 in /  0 mm 907 W/m2
13:19 57.4 °F /  14.1 °C 48.8 °F /  9.3 °C 29.71 in /  1006 hPa West 10.0 mph /  16.1 km/h 16.0 mph /  25.7 km/h 73 % 0.00 in /  0 mm 461 W/m2
13:24 57.2 °F /  14 °C 47.9 °F /  8.8 °C 29.72 in /  1006.3 hPa West 10.0 mph /  16.1 km/h 19.0 mph /  30.6 km/h 71 % 0.00 in /  0 mm 336 W/m2
13:29 56.8 °F /  13.8 °C 47.5 °F /  8.6 °C 29.72 in /  1006.3 hPa West 11.0 mph /  17.7 km/h 19.0 mph /  30.6 km/h 71 % 0.00 in /  0 mm 316 W/m2
13:35 56.7 °F /  13.7 °C 48.1 °F /  8.9 °C 29.72 in /  1006.3 hPa West 9.0 mph /  14.5 km/h 16.0 mph /  25.7 km/h 73 % 0.00 in /  0 mm 364 W/m2
13:39 57.0 °F /  13.9 °C 48.4 °F /  9.1 °C 29.72 in /  1006.3 hPa West 8.0 mph /  12.9 km/h 15.0 mph /  24.1 km/h 73 % 0.00 in /  0 mm 895 W/m2
13:45 57.6 °F /  14.2 °C 48.2 °F /  9 °C 29.72 in /  1006.3 hPa West 10.0 mph /  16.1 km/h 19.0 mph /  30.6 km/h 71 % 0.00 in /  0 mm 912 W/m2
13:50 58.1 °F /  14.5 °C 47.6 °F /  8.7 °C 29.72 in /  1006.3 hPa West 12.0 mph /  19.3 km/h 19.0 mph /  30.6 km/h 68 % 0.00 in /  0 mm 348 W/m2
13:55 58.1 °F /  14.5 °C 48.0 °F /  8.9 °C 29.72 in /  1006.3 hPa WNW 11.0 mph /  17.7 km/h 19.0 mph /  30.6 km/h 69 % 0.00 in /  0 mm 432 W/m2
14:00 58.3 °F /  14.6 °C 47.8 °F /  8.8 °C 29.73 in /  1006.7 hPa WNW 10.0 mph /  16.1 km/h 18.0 mph /  29 km/h 68 % 0.00 in /  0 mm 432 W/m2
14:05 58.3 °F /  14.6 °C 47.4 °F /  8.6 °C 29.73 in /  1006.7 hPa West 10.0 mph /  16.1 km/h 21.0 mph /  33.8 km/h 67 % 0.00 in /  0 mm 956 W/m2
14:10 58.5 °F /  14.7 °C 47.5 °F /  8.6 °C 29.73 in /  1006.7 hPa West 10.0 mph /  16.1 km/h 21.0 mph /  33.8 km/h 67 % 0.00 in /  0 mm 612 W/m2
14:15 58.6 °F /  14.8 °C 47.7 °F /  8.7 °C 29.73 in /  1006.7 hPa West 10.0 mph /  16.1 km/h 19.0 mph /  30.6 km/h 67 % 0.00 in /  0 mm 795 W/m2
14:20 58.8 °F /  14.9 °C 47.9 °F /  8.8 °C 29.73 in /  1006.7 hPa West 11.0 mph /  17.7 km/h 20.0 mph /  32.2 km/h 67 % 0.00 in /  0 mm 306 W/m2
14:25 58.8 °F /  14.9 °C 47.9 °F /  8.8 °C 29.73 in /  1006.7 hPa WNW 11.0 mph /  17.7 km/h 20.0 mph /  32.2 km/h 67 % 0.00 in /  0 mm 348 W/m2
14:30 58.5 °F /  14.7 °C 47.1 °F /  8.4 °C 29.73 in /  1006.7 hPa West 10.0 mph /  16.1 km/h 16.0 mph /  25.7 km/h 66 % 0.00 in /  0 mm 292 W/m2
14:37 58.8 °F /  14.9 °C 47.9 °F /  8.8 °C 29.73 in /  1006.7 hPa West 10.0 mph /  16.1 km/h 12.0 mph /  19.3 km/h 67 % 0.00 in /  0 mm 803 W/m2
14:42 59.2 °F /  15.1 °C 48.6 °F /  9.2 °C 29.73 in /  1006.7 hPa WSW 8.0 mph /  12.9 km/h 14.0 mph /  22.5 km/h 68 % 0.00 in /  0 mm 821 W/m2
14:47 59.2 °F /  15.1 °C 47.8 °F /  8.8 °C 29.73 in /  1006.7 hPa WSW 8.0 mph /  12.9 km/h 14.0 mph /  22.5 km/h 66 % 0.00 in /  0 mm 707 W/m2
14:52 58.8 °F /  14.9 °C 47.9 °F /  8.8 °C 29.73 in /  1006.7 hPa West 10.0 mph /  16.1 km/h 16.0 mph /  25.7 km/h 67 % 0.00 in /  0 mm 710 W/m2
14:57 58.6 °F /  14.8 °C 48.1 °F /  8.9 °C 29.73 in /  1006.7 hPa WSW 10.0 mph /  16.1 km/h 16.0 mph /  25.7 km/h 68 % 0.00 in /  0 mm 264 W/m2
15:02 58.6 °F /  14.8 °C 48.5 °F /  9.2 °C 29.73 in /  1006.7 hPa West 9.0 mph /  14.5 km/h 14.0 mph /  22.5 km/h 69 % 0.00 in /  0 mm 686 W/m2
15:07 59.2 °F /  15.1 °C 48.6 °F /  9.2 °C 29.74 in /  1007 hPa West 9.0 mph /  14.5 km/h 16.0 mph /  25.7 km/h 68 % 0.00 in /  0 mm 698 W/m2
15:12 59.5 °F /  15.3 °C 49.0 °F /  9.4 °C 29.74 in /  1007 hPa West 10.0 mph /  16.1 km/h 18.0 mph /  29 km/h 68 % 0.00 in /  0 mm 766 W/m2
15:17 59.5 °F /  15.3 °C 48.2 °F /  9 °C 29.74 in /  1007 hPa West 11.0 mph /  17.7 km/h 20.0 mph /  32.2 km/h 66 % 0.00 in /  0 mm 185 W/m2
15:23 59.2 °F /  15.1 °C 48.2 °F /  9 °C 29.74 in /  1007 hPa West 11.0 mph /  17.7 km/h 22.0 mph /  35.4 km/h 67 % 0.00 in /  0 mm 670 W/m2
15:28 59.2 °F /  15.1 °C 48.2 °F /  9 °C 29.74 in /  1007 hPa West 10.0 mph /  16.1 km/h 22.0 mph /  35.4 km/h 67 % 0.00 in /  0 mm 686 W/m2
15:33 58.6 °F /  14.8 °C 47.7 °F /  8.7 °C 29.74 in /  1007 hPa West 11.0 mph /  17.7 km/h 21.0 mph /  33.8 km/h 67 % 0.00 in /  0 mm 258 W/m2
15:38 58.1 °F /  14.5 °C 47.6 °F /  8.7 °C 29.75 in /  1007.3 hPa WNW 13.0 mph /  20.9 km/h 21.0 mph /  33.8 km/h 68 % 0.00 in /  0 mm 439 W/m2
15:43 57.7 °F /  14.3 °C 47.6 °F /  8.7 °C 29.75 in /  1007.3 hPa WNW 12.0 mph /  19.3 km/h 21.0 mph /  33.8 km/h 69 % 0.00 in /  0 mm 269 W/m2
15:48 57.4 °F /  14.1 °C 47.7 °F /  8.7 °C 29.75 in /  1007.3 hPa WNW 11.0 mph /  17.7 km/h 19.0 mph /  30.6 km/h 70 % 0.00 in /  0 mm 234 W/m2
15:53 56.8 °F /  13.8 °C 47.9 °F /  8.8 °C 29.75 in /  1007.3 hPa WNW 10.0 mph /  16.1 km/h 18.0 mph /  29 km/h 72 % 0.00 in /  0 mm 199 W/m2
15:58 56.5 °F /  13.6 °C 47.2 °F /  8.4 °C 29.75 in /  1007.3 hPa WNW 10.0 mph /  16.1 km/h 19.0 mph /  30.6 km/h 71 % 0.00 in /  0 mm 195 W/m2
16:03 56.1 °F /  13.4 °C 46.8 °F /  8.2 °C 29.75 in /  1007.3 hPa West 11.0 mph /  17.7 km/h 19.0 mph /  30.6 km/h 71 % 0.00 in /  0 mm 186 W/m2
16:08 55.8 °F /  13.2 °C 46.9 °F /  8.3 °C 29.75 in /  1007.3 hPa West 10.0 mph /  16.1 km/h 18.0 mph /  29 km/h 72 % 0.00 in /  0 mm 158 W/m2
16:13 55.8 °F /  13.2 °C 47.2 °F /  8.4 °C 29.76 in /  1007.7 hPa West 8.0 mph /  12.9 km/h 14.0 mph /  22.5 km/h 73 % 0.00 in /  0 mm 160 W/m2
16:18 55.4 °F /  13 °C 46.9 °F /  8.3 °C 29.76 in /  1007.7 hPa West 9.0 mph /  14.5 km/h 20.0 mph /  32.2 km/h 73 % 0.00 in /  0 mm 243 W/m2
16:23 55.6 °F /  13.1 °C 47.4 °F /  8.6 °C 29.76 in /  1007.7 hPa West 10.0 mph /  16.1 km/h 20.0 mph /  32.2 km/h 74 % 0.00 in /  0 mm 311 W/m2
16:28 56.1 °F /  13.4 °C 47.6 °F /  8.7 °C 29.76 in /  1007.7 hPa WNW 9.0 mph /  14.5 km/h 16.0 mph /  25.7 km/h 73 % 0.00 in /  0 mm 555 W/m2
16:33 56.8 °F /  13.8 °C 47.9 °F /  8.8 °C 29.76 in /  1007.7 hPa WNW 10.0 mph /  16.1 km/h 16.0 mph /  25.7 km/h 72 % 0.00 in /  0 mm 519 W/m2
16:38 57.4 °F /  14.1 °C 48.1 °F /  8.9 °C 29.76 in /  1007.7 hPa WNW 9.0 mph /  14.5 km/h 16.0 mph /  25.7 km/h 71 % 0.00 in /  0 mm 513 W/m2
16:43 57.7 °F /  14.3 °C 48.0 °F /  8.9 °C 29.76 in /  1007.7 hPa WNW 8.0 mph /  12.9 km/h 16.0 mph /  25.7 km/h 70 % 0.00 in /  0 mm 380 W/m2
16:48 57.6 °F /  14.2 °C 47.1 °F /  8.4 °C 29.76 in /  1007.7 hPa WNW 9.0 mph /  14.5 km/h 18.0 mph /  29 km/h 68 % 0.00 in /  0 mm 427 W/m2
16:53 57.6 °F /  14.2 °C 47.5 °F /  8.6 °C 29.77 in /  1008 hPa WNW 9.0 mph /  14.5 km/h 18.0 mph /  29 km/h 69 % 0.00 in /  0 mm 450 W/m2
16:58 57.6 °F /  14.2 °C 47.5 °F /  8.6 °C 29.77 in /  1008 hPa WNW 9.0 mph /  14.5 km/h 16.0 mph /  25.7 km/h 69 % 0.00 in /  0 mm 411 W/m2
17:03 57.6 °F /  14.2 °C 47.5 °F /  8.6 °C 29.77 in /  1008 hPa WNW 8.0 mph /  12.9 km/h 15.0 mph /  24.1 km/h 69 % 0.00 in /  0 mm 171 W/m2
17:08 57.6 °F /  14.2 °C 47.5 °F /  8.6 °C 29.77 in /  1008 hPa WNW 5.0 mph /  8 km/h 10.0 mph /  16.1 km/h 69 % 0.00 in /  0 mm 251 W/m2
17:13 57.7 °F /  14.3 °C 47.6 °F /  8.7 °C 29.77 in /  1008 hPa WNW 5.0 mph /  8 km/h 12.0 mph /  19.3 km/h 69 % 0.00 in /  0 mm 352 W/m2
17:18 57.6 °F /  14.2 °C 46.3 °F /  7.9 °C 29.77 in /  1008 hPa WNW 10.0 mph /  16.1 km/h 20.0 mph /  32.2 km/h 66 % 0.00 in /  0 mm 227 W/m2
17:23 57.4 °F /  14.1 °C 46.5 °F /  8.1 °C 29.77 in /  1008 hPa WNW 12.0 mph /  19.3 km/h 20.0 mph /  32.2 km/h 67 % 0.00 in /  0 mm 230 W/m2
17:28 57.0 °F /  13.9 °C 46.6 °F /  8.1 °C 29.78 in /  1008.4 hPa WNW 11.0 mph /  17.7 km/h 19.0 mph /  30.6 km/h 68 % 0.00 in /  0 mm 381 W/m2
17:33 56.8 °F /  13.8 °C 46.4 °F /  8 °C 29.78 in /  1008.4 hPa WNW 12.0 mph /  19.3 km/h 22.0 mph /  35.4 km/h 68 % 0.00 in /  0 mm 123 W/m2
17:38 56.1 °F /  13.4 °C 45.7 °F /  7.6 °C 29.79 in /  1008.7 hPa WNW 12.0 mph /  19.3 km/h 22.0 mph /  35.4 km/h 68 % 0.00 in /  0 mm 120 W/m2
17:43 55.8 °F /  13.2 °C 46.1 °F /  7.8 °C 29.79 in /  1008.7 hPa WNW 10.0 mph /  16.1 km/h 16.0 mph /  25.7 km/h 70 % 0.00 in /  0 mm 125 W/m2
17:48 55.4 °F /  13 °C 46.2 °F /  7.9 °C 29.79 in /  1008.7 hPa WNW 8.0 mph /  12.9 km/h 14.0 mph /  22.5 km/h 71 % 0.00 in /  0 mm 100 W/m2
17:53 55.0 °F /  12.8 °C 45.4 °F /  7.4 °C 29.79 in /  1008.7 hPa WNW 9.0 mph /  14.5 km/h 14.0 mph /  22.5 km/h 70 % 0.00 in /  0 mm 76 W/m2
17:58 54.9 °F /  12.7 °C 45.3 °F /  7.4 °C 29.80 in /  1009 hPa WNW 9.0 mph /  14.5 km/h 15.0 mph /  24.1 km/h 70 % 0.00 in /  0 mm 67 W/m2
18:03 54.7 °F /  12.6 °C 45.5 °F /  7.5 °C 29.80 in /  1009 hPa WNW 8.0 mph /  12.9 km/h 15.0 mph /  24.1 km/h 71 % 0.00 in /  0 mm 113 W/m2
18:08 54.7 °F /  12.6 °C 45.5 °F /  7.5 °C 29.80 in /  1009 hPa WNW 9.0 mph /  14.5 km/h 16.0 mph /  25.7 km/h 71 % 0.00 in /  0 mm 120 W/m2
18:13 54.9 °F /  12.7 °C 45.6 °F /  7.6 °C 29.80 in /  1009 hPa WNW 9.0 mph /  14.5 km/h 16.0 mph /  25.7 km/h 71 % 0.00 in /  0 mm 120 W/m2
18:18 55.0 °F /  12.8 °C 45.8 °F /  7.7 °C 29.81 in /  1009.4 hPa WNW 8.0 mph /  12.9 km/h 16.0 mph /  25.7 km/h 71 % 0.00 in /  0 mm 86 W/m2
18:23 55.0 °F /  12.8 °C 46.2 °F /  7.9 °C 29.81 in /  1009.4 hPa WNW 7.0 mph /  11.3 km/h 15.0 mph /  24.1 km/h 72 % 0.00 in /  0 mm 74 W/m2
18:29 55.0 °F /  12.8 °C 46.2 °F /  7.9 °C 29.81 in /  1009.4 hPa WNW 5.0 mph /  8 km/h 12.0 mph /  19.3 km/h 72 % 0.00 in /  0 mm 63 W/m2
18:34 55.0 °F /  12.8 °C 46.2 °F /  7.9 °C 29.81 in /  1009.4 hPa WNW 4.0 mph /  6.4 km/h 9.0 mph /  14.5 km/h 72 % 0.00 in /  0 mm 65 W/m2
18:39 54.9 °F /  12.7 °C 46.0 °F /  7.8 °C 29.81 in /  1009.4 hPa WNW 5.0 mph /  8 km/h 11.0 mph /  17.7 km/h 72 % 0.00 in /  0 mm 60 W/m2
18:44 54.9 °F /  12.7 °C 45.3 °F /  7.4 °C 29.81 in /  1009.4 hPa WNW 6.0 mph /  9.7 km/h 13.0 mph /  20.9 km/h 70 % 0.00 in /  0 mm 62 W/m2
18:49 54.9 °F /  12.7 °C 45.3 °F /  7.4 °C 29.81 in /  1009.4 hPa WNW 7.0 mph /  11.3 km/h 13.0 mph /  20.9 km/h 70 % 0.00 in /  0 mm 100 W/m2
18:54 54.9 °F /  12.7 °C 45.6 °F /  7.6 °C 29.82 in /  1009.7 hPa WNW 7.0 mph /  11.3 km/h 12.0 mph /  19.3 km/h 71 % 0.00 in /  0 mm 91 W/m2
18:59 54.9 °F /  12.7 °C 45.6 °F /  7.6 °C 29.82 in /  1009.7 hPa WNW 6.0 mph /  9.7 km/h 12.0 mph /  19.3 km/h 71 % 0.00 in /  0 mm 81 W/m2
19:04 54.9 °F /  12.7 °C 45.6 °F /  7.6 °C 29.82 in /  1009.7 hPa WNW 4.0 mph /  6.4 km/h 9.0 mph /  14.5 km/h 71 % 0.00 in /  0 mm 69 W/m2
19:09 55.0 °F /  12.8 °C 45.8 °F /  7.7 °C 29.82 in /  1009.7 hPa West 4.0 mph /  6.4 km/h 9.0 mph /  14.5 km/h 71 % 0.00 in /  0 mm 46 W/m2
19:14 54.9 °F /  12.7 °C 45.6 °F /  7.6 °C 29.83 in /  1010 hPa West 4.0 mph /  6.4 km/h 9.0 mph /  14.5 km/h 71 % 0.00 in /  0 mm 33 W/m2
19:19 54.9 °F /  12.7 °C 45.6 °F /  7.6 °C 29.83 in /  1010 hPa WNW 5.0 mph /  8 km/h 11.0 mph /  17.7 km/h 71 % 0.00 in /  0 mm 23 W/m2
19:24 54.7 °F /  12.6 °C 45.8 °F /  7.7 °C 29.83 in /  1010 hPa WNW 6.0 mph /  9.7 km/h 11.0 mph /  17.7 km/h 72 % 0.00 in /  0 mm 16 W/m2
19:29 54.3 °F /  12.4 °C 45.5 °F /  7.5 °C 29.83 in /  1010 hPa WNW 6.0 mph /  9.7 km/h 10.0 mph /  16.1 km/h 72 % 0.00 in /  0 mm 12 W/m2
19:34 54.0 °F /  12.2 °C 45.1 °F /  7.3 °C 29.83 in /  1010 hPa West 5.0 mph /  8 km/h 10.0 mph /  16.1 km/h 72 % 0.00 in /  0 mm 9 W/m2
19:39 53.4 °F /  11.9 °C 45.0 °F /  7.2 °C 29.83 in /  1010 hPa WNW 5.0 mph /  8 km/h 9.0 mph /  14.5 km/h 73 % 0.00 in /  0 mm 7 W/m2
19:44 53.1 °F /  11.7 °C 45.0 °F /  7.2 °C 29.84 in /  1010.4 hPa WNW 5.0 mph /  8 km/h 10.0 mph /  16.1 km/h 74 % 0.00 in /  0 mm 0 W/m2
19:49 52.9 °F /  11.6 °C 45.2 °F /  7.3 °C 29.84 in /  1010.4 hPa WNW 6.0 mph /  9.7 km/h 11.0 mph /  17.7 km/h 75 % 0.00 in /  0 mm 0 W/m2
19:54 52.3 °F /  11.3 °C 45.0 °F /  7.2 °C 29.84 in /  1010.4 hPa WNW 6.0 mph /  9.7 km/h 11.0 mph /  17.7 km/h 76 % 0.00 in /  0 mm 0 W/m2
19:59 52.2 °F /  11.2 °C 45.2 °F /  7.3 °C 29.84 in /  1010.4 hPa WNW 5.0 mph /  8 km/h 10.0 mph /  16.1 km/h 77 % 0.00 in /  0 mm 0 W/m2
20:04 52.0 °F /  11.1 °C 45.0 °F /  7.2 °C 29.85 in /  1010.7 hPa WNW 7.0 mph /  11.3 km/h 15.0 mph /  24.1 km/h 77 % 0.00 in /  0 mm 0 W/m2
20:05 51.8 °F /  11 °C 44.8 °F /  7.1 °C 29.85 in /  1010.7 hPa WNW 8.0 mph /  12.9 km/h 18.0 mph /  29 km/h 77 % 0.00 in /  0 mm 0 W/m2
20:10 51.6 °F /  10.9 °C 45.0 °F /  7.2 °C 29.85 in /  1010.7 hPa WNW 10.0 mph /  16.1 km/h 18.0 mph /  29 km/h 78 % 0.00 in /  0 mm 0 W/m2
20:15 51.3 °F /  10.7 °C 45.0 °F /  7.2 °C 29.85 in /  1010.7 hPa WNW 10.0 mph /  16.1 km/h 18.0 mph /  29 km/h 79 % 0.00 in /  0 mm 0 W/m2
20:20 51.1 °F /  10.6 °C 44.8 °F /  7.1 °C 29.85 in /  1010.7 hPa WNW 9.0 mph /  14.5 km/h 18.0 mph /  29 km/h 79 % 0.00 in /  0 mm 0 W/m2
20:25 50.7 °F /  10.4 °C 44.8 °F /  7.1 °C 29.86 in /  1011.1 hPa WNW 8.0 mph /  12.9 km/h 14.0 mph /  22.5 km/h 80 % 0.00 in /  0 mm 0 W/m2
20:30 50.5 °F /  10.3 °C 44.6 °F /  7 °C 29.86 in /  1011.1 hPa WNW 8.0 mph /  12.9 km/h 14.0 mph /  22.5 km/h 80 % 0.00 in /  0 mm 0 W/m2
20:35 50.4 °F /  10.2 °C 44.4 °F /  6.9 °C 29.86 in /  1011.1 hPa WNW 8.0 mph /  12.9 km/h 12.0 mph /  19.3 km/h 80 % 0.00 in /  0 mm 0 W/m2
20:40 50.2 °F /  10.1 °C 44.6 °F /  7 °C 29.87 in /  1011.4 hPa WNW 7.0 mph /  11.3 km/h 12.0 mph /  19.3 km/h 81 % 0.00 in /  0 mm 0 W/m2
20:45 49.8 °F /  9.9 °C 44.2 °F /  6.8 °C 29.87 in /  1011.4 hPa WNW 7.0 mph /  11.3 km/h 13.0 mph /  20.9 km/h 81 % 0.00 in /  0 mm 0 W/m2
20:50 49.6 °F /  9.8 °C 44.4 °F /  6.9 °C 29.87 in /  1011.4 hPa WNW 8.0 mph /  12.9 km/h 13.0 mph /  20.9 km/h 82 % 0.00 in /  0 mm 0 W/m2
20:56 49.5 °F /  9.7 °C 44.2 °F /  6.8 °C 29.88 in /  1011.7 hPa WNW 7.0 mph /  11.3 km/h 13.0 mph /  20.9 km/h 82 % 0.00 in /  0 mm 0 W/m2
21:00 49.5 °F /  9.7 °C 44.2 °F /  6.8 °C 29.88 in /  1011.7 hPa WNW 7.0 mph /  11.3 km/h 11.0 mph /  17.7 km/h 82 % 0.00 in /  0 mm 0 W/m2
21:06 49.3 °F /  9.6 °C 44.3 °F /  6.8 °C 29.88 in /  1011.7 hPa WNW 7.0 mph /  11.3 km/h 11.0 mph /  17.7 km/h 83 % 0.00 in /  0 mm 0 W/m2
21:11 49.1 °F /  9.5 °C 44.2 °F /  6.8 °C 29.88 in /  1011.7 hPa WNW 7.0 mph /  11.3 km/h 11.0 mph /  17.7 km/h 83 % 0.00 in /  0 mm 0 W/m2
21:16 48.9 °F /  9.4 °C 44.0 °F /  6.7 °C 29.89 in /  1012.1 hPa WNW 6.0 mph /  9.7 km/h 11.0 mph /  17.7 km/h 83 % 0.00 in /  0 mm 0 W/m2
21:21 48.7 °F /  9.3 °C 44.1 °F /  6.7 °C 29.89 in /  1012.1 hPa WNW 7.0 mph /  11.3 km/h 15.0 mph /  24.1 km/h 84 % 0.00 in /  0 mm 0 W/m2
21:26 48.6 °F /  9.2 °C 43.6 °F /  6.4 °C 29.89 in /  1012.1 hPa WNW 8.0 mph /  12.9 km/h 15.0 mph /  24.1 km/h 83 % 0.00 in /  0 mm 0 W/m2
21:31 48.4 °F /  9.1 °C 43.5 °F /  6.4 °C 29.89 in /  1012.1 hPa WNW 7.0 mph /  11.3 km/h 12.0 mph /  19.3 km/h 83 % 0.00 in /  0 mm 0 W/m2
21:36 48.4 °F /  9.1 °C 43.5 °F /  6.4 °C 29.89 in /  1012.1 hPa WNW 7.0 mph /  11.3 km/h 18.0 mph /  29 km/h 83 % 0.00 in /  0 mm 0 W/m2
21:41 48.2 °F /  9 °C 43.6 °F /  6.4 °C 29.90 in /  1012.4 hPa WNW 7.0 mph /  11.3 km/h 18.0 mph /  29 km/h 84 % 0.00 in /  0 mm 0 W/m2
21:42 48.2 °F /  9 °C 43.6 °F /  6.4 °C 29.90 in /  1012.4 hPa WNW 7.0 mph /  11.3 km/h 18.0 mph /  29 km/h 84 % 0.00 in /  0 mm 0 W/m2
21:47 48.0 °F /  8.9 °C 43.4 °F /  6.3 °C 29.90 in /  1012.4 hPa WNW 6.0 mph /  9.7 km/h 11.0 mph /  17.7 km/h 84 % 0.00 in /  0 mm 0 W/m2
21:53 48.0 °F /  8.9 °C 43.4 °F /  6.3 °C 29.90 in /  1012.4 hPa WNW 5.0 mph /  8 km/h 9.0 mph /  14.5 km/h 84 % 0.00 in /  0 mm 0 W/m2
21:58 47.8 °F /  8.8 °C 43.5 °F /  6.4 °C 29.90 in /  1012.4 hPa WNW 5.0 mph /  8 km/h 10.0 mph /  16.1 km/h 85 % 0.00 in /  0 mm 0 W/m2
22:03 47.8 °F /  8.8 °C 43.5 °F /  6.4 °C 29.90 in /  1012.4 hPa WNW 6.0 mph /  9.7 km/h 11.0 mph /  17.7 km/h 85 % 0.00 in /  0 mm 0 W/m2
22:08 47.8 °F /  8.8 °C 43.5 °F /  6.4 °C 29.90 in /  1012.4 hPa WNW 6.0 mph /  9.7 km/h 13.0 mph /  20.9 km/h 85 % 0.00 in /  0 mm 0 W/m2
22:13 47.7 °F /  8.7 °C 43.4 °F /  6.3 °C 29.90 in /  1012.4 hPa WNW 6.0 mph /  9.7 km/h 13.0 mph /  20.9 km/h 85 % 0.00 in /  0 mm 0 W/m2
22:18 47.7 °F /  8.7 °C 43.4 °F /  6.3 °C 29.91 in /  1012.8 hPa WNW 6.0 mph /  9.7 km/h 12.0 mph /  19.3 km/h 85 % 0.00 in /  0 mm 0 W/m2
22:23 47.7 °F /  8.7 °C 43.7 °F /  6.5 °C 29.91 in /  1012.8 hPa WNW 6.0 mph /  9.7 km/h 12.0 mph /  19.3 km/h 86 % 0.00 in /  0 mm 0 W/m2
22:28 47.7 °F /  8.7 °C 43.7 °F /  6.5 °C 29.91 in /  1012.8 hPa WNW 7.0 mph /  11.3 km/h 14.0 mph /  22.5 km/h 86 % 0.00 in /  0 mm 0 W/m2
22:33 47.7 °F /  8.7 °C 43.7 °F /  6.5 °C 29.91 in /  1012.8 hPa WNW 8.0 mph /  12.9 km/h 14.0 mph /  22.5 km/h 86 % 0.00 in /  0 mm 0 W/m2
22:38 47.7 °F /  8.7 °C 44.0 °F /  6.7 °C 29.91 in /  1012.8 hPa WNW 7.0 mph /  11.3 km/h 12.0 mph /  19.3 km/h 87 % 0.00 in /  0 mm 0 W/m2
22:43 47.8 °F /  8.8 °C 44.2 °F /  6.8 °C 29.92 in /  1013.1 hPa WNW 8.0 mph /  12.9 km/h 12.0 mph /  19.3 km/h 87 % 0.00 in /  0 mm 0 W/m2
22:48 47.8 °F /  8.8 °C 44.2 °F /  6.8 °C 29.92 in /  1013.1 hPa WNW 8.0 mph /  12.9 km/h 13.0 mph /  20.9 km/h 87 % 0.00 in /  0 mm 0 W/m2
22:53 47.8 °F /  8.8 °C 44.2 °F /  6.8 °C 29.92 in /  1013.1 hPa WNW 7.0 mph /  11.3 km/h 13.0 mph /  20.9 km/h 87 % 0.00 in /  0 mm 0 W/m2
22:58 48.0 °F /  8.9 °C 44.0 °F /  6.7 °C 29.92 in /  1013.1 hPa WNW 8.0 mph /  12.9 km/h 12.0 mph /  19.3 km/h 86 % 0.00 in /  0 mm 0 W/m2
23:03 47.8 °F /  8.8 °C 43.9 °F /  6.6 °C 29.92 in /  1013.1 hPa WNW 8.0 mph /  12.9 km/h 11.0 mph /  17.7 km/h 86 % 0.00 in /  0 mm 0 W/m2
23:08 47.8 °F /  8.8 °C 43.9 °F /  6.6 °C 29.92 in /  1013.1 hPa WNW 7.0 mph /  11.3 km/h 11.0 mph /  17.7 km/h 86 % 0.00 in /  0 mm 0 W/m2
23:13 47.8 °F /  8.8 °C 44.2 °F /  6.8 °C 29.92 in /  1013.1 hPa WNW 7.0 mph /  11.3 km/h 13.0 mph /  20.9 km/h 87 % 0.00 in /  0 mm 0 W/m2
23:18 47.8 °F /  8.8 °C 44.2 °F /  6.8 °C 29.92 in /  1013.1 hPa WNW 7.0 mph /  11.3 km/h 13.0 mph /  20.9 km/h 87 % 0.00 in /  0 mm 0 W/m2
23:23 47.7 °F /  8.7 °C 44.0 °F /  6.7 °C 29.93 in /  1013.4 hPa WNW 6.0 mph /  9.7 km/h 11.0 mph /  17.7 km/h 87 % 0.00 in /  0 mm 0 W/m2
23:28 47.7 °F /  8.7 °C 44.0 °F /  6.7 °C 29.93 in /  1013.4 hPa WNW 6.0 mph /  9.7 km/h 10.0 mph /  16.1 km/h 87 % 0.00 in /  0 mm 0 W/m2
23:33 47.7 °F /  8.7 °C 44.0 °F /  6.7 °C 29.93 in /  1013.4 hPa WNW 6.0 mph /  9.7 km/h 11.0 mph /  17.7 km/h 87 % 0.00 in /  0 mm 0 W/m2
23:38 47.5 °F /  8.6 °C 44.1 °F /  6.7 °C 29.93 in /  1013.4 hPa WNW 6.0 mph /  9.7 km/h 11.0 mph /  17.7 km/h 88 % 0.00 in /  0 mm 0 W/m2
23:43 47.5 °F /  8.6 °C 44.1 °F /  6.7 °C 29.93 in /  1013.4 hPa WNW 6.0 mph /  9.7 km/h 13.0 mph /  20.9 km/h 88 % 0.00 in /  0 mm 0 W/m2
23:48 47.5 °F /  8.6 °C 44.1 °F /  6.7 °C 29.94 in /  1013.8 hPa WNW 7.0 mph /  11.3 km/h 13.0 mph /  20.9 km/h 88 % 0.00 in /  0 mm 0 W/m2
23:53 47.5 °F /  8.6 °C 44.1 °F /  6.7 °C 29.94 in /  1013.8 hPa WNW 7.0 mph /  11.3 km/h 12.0 mph /  19.3 km/h 88 % 0.00 in /  0 mm 0 W/m2
23:58 47.3 °F /  8.5 °C 43.9 °F /  6.6 °C 29.94 in /  1013.8 hPa WNW 6.0 mph /  9.7 km/h 11.0 mph /  17.7 km/h 88 % 0.00 in /  0 mm 0 W/m2
Delerius-Weather
Compliments of Weather Underground - 2.25 mb

Data updates at regular intervals.